Terminal Aerodrome Forecast
Issued by NWS

Home | Current Version | Previous Version | Text Only | Print | Product List | Glossary On
Versions: 1 2 3 4 5 6 7 8 9 10 11 12 13
000
FTUS45 KLKN 201734
TAFTPH
TAF
KTPH 201734Z 2018/2118 19006KT P6SM SKC
     FM202000 19012G22KT P6SM SCT100
     FM210400 18008KT P6SM SCT150
     FM210800 36006KT P6SM SKC=

USA.gov is the U.S. government's official web portal to all federal, state and local government web resources and services.